Time;durP1;ratioP1;P1;durP2;ratioP2;P2;SDS_P1;SDS_P2;PMS_P1;PMS_P2;Temp;Humidity;BMP_temperature;BMP_pressure;BME280_temperature;BME280_humidity;BME280_pressure;Samples;Min_cycle;Max_cycle;Signal;HPM_P1;HPM_P2
2021/07/14 00:02:06;;;;;;;6.23;3.13;;;20.40;49.60;;;;;;4974551;28;20452;-86
2021/07/14 00:04:35;;;;;;;9.53;4.00;;;20.20;50.80;;;;;;4975337;28;20480;-86
2021/07/14 00:07:03;;;;;;;12.47;2.77;;;20.00;50.80;;;;;;4975232;28;20495;-86
2021/07/14 00:09:30;;;;;;;4.50;3.23;;;19.90;51.60;;;;;;4975239;28;20491;-85
2021/07/14 00:11:59;;;;;;;17.43;3.67;;;19.70;51.70;;;;;;4975463;28;20451;-85
2021/07/14 00:14:56;;;;;;;5.60;3.10;;;19.40;52.20;;;;;;4974862;28;20905;-85
2021/07/14 00:17:29;;;;;;;4.00;3.13;;;19.20;52.90;;;;;;4974813;28;20444;-85
2021/07/14 00:22:42;;;;;;;8.10;3.53;;;19.10;53.20;;;;;;4974738;28;20407;-86
2021/07/14 00:25:12;;;;;;;4.83;3.30;;;19.10;53.30;;;;;;4974697;28;20490;-86
2021/07/14 00:27:43;;;;;;;9.57;3.37;;;18.90;53.50;;;;;;4974922;28;20452;-86
2021/07/14 00:30:15;;;;;;;6.30;3.40;;;18.80;53.70;;;;;;4975267;28;20463;-86
2021/07/14 00:32:42;;;;;;;8.67;4.57;;;18.90;53.60;;;;;;4974536;28;20526;-86
2021/07/14 00:35:11;;;;;;;8.30;3.20;;;19.00;53.60;;;;;;4974983;28;20488;-86
2021/07/14 00:37:38;;;;;;;8.70;3.50;;;18.80;53.80;;;;;;4974825;28;20459;-86
2021/07/14 00:40:10;;;;;;;7.27;3.27;;;19.00;53.90;;;;;;4973365;28;20452;-86
2021/07/14 00:42:37;;;;;;;3.33;3.00;;;19.40;53.00;;;;;;4975316;28;20512;-86
2021/07/14 00:45:05;;;;;;;12.63;4.10;;;19.60;52.40;;;;;;4974311;28;20479;-86
2021/07/14 00:47:34;;;;;;;7.03;3.43;;;19.50;52.70;;;;;;4974036;28;20431;-86
2021/07/14 00:50:02;;;;;;;13.37;3.23;;;19.40;52.10;;;;;;4975086;28;20483;-86
2021/07/14 00:52:29;;;;;;;5.60;3.27;;;19.00;53.80;;;;;;4974591;28;20436;-86
2021/07/14 00:54:57;;;;;;;25.53;3.57;;;19.00;54.60;;;;;;4974677;28;20504;-86
2021/07/14 00:57:28;;;;;;;6.87;3.77;;;19.30;53.10;;;;;;4974249;28;20820;-86
2021/07/14 00:59:55;;;;;;;3.27;3.00;;;19.50;53.20;;;;;;4974657;28;20448;-86
2021/07/14 01:02:24;;;;;;;5.10;3.20;;;19.70;52.70;;;;;;4974662;28;20499;-86
2021/07/14 01:04:57;;;;;;;3.93;3.20;;;19.70;53.70;;;;;;4974526;28;20976;-86
2021/07/14 01:07:26;;;;;;;7.10;3.90;;;19.40;53.10;;;;;;4974388;28;20471;-86
2021/07/14 01:09:57;;;;;;;4.83;3.80;;;19.00;52.00;;;;;;4973268;28;20863;-86
2021/07/14 01:12:33;;;;;;;9.70;4.20;;;18.70;52.20;;;;;;4977400;28;20484;-86
2021/07/14 01:15:05;;;;;;;6.40;3.57;;;18.90;52.70;;;;;;4978657;28;20534;-86
2021/07/14 01:17:36;;;;;;;5.80;3.50;;;19.30;52.30;;;;;;4977982;28;20440;-86
2021/07/14 01:20:17;;;;;;;10.10;4.43;;;19.30;52.00;;;;;;4977506;28;20478;-86
2021/07/14 01:22:54;;;;;;;15.73;3.80;;;19.50;52.80;;;;;;4977990;28;20443;-86
2021/07/14 01:25:33;;;;;;;27.00;3.50;;;19.80;52.30;;;;;;4978436;28;20501;-86
2021/07/14 01:28:02;;;;;;;6.67;3.30;;;20.20;51.50;;;;;;4978140;28;20550;-86
2021/07/14 01:30:29;;;;;;;13.93;3.70;;;20.20;50.70;;;;;;4977872;28;20521;-86
2021/07/14 01:32:57;;;;;;;5.73;2.97;;;19.80;50.60;;;;;;4977487;28;20996;-86
2021/07/14 01:35:27;;;;;;;17.20;3.40;;;19.70;51.40;;;;;;4977963;28;20838;-86
2021/07/14 01:37:56;;;;;;;5.77;3.80;;;19.60;52.10;;;;;;4977560;28;20980;-86
2021/07/14 01:40:24;;;;;;;5.07;2.83;;;19.60;50.20;;;;;;4977440;28;20467;-87
2021/07/14 01:42:55;;;;;;;19.63;3.73;;;19.70;51.90;;;;;;4978009;28;20471;-87
2021/07/14 01:45:28;;;;;;;14.40;3.47;;;19.90;51.60;;;;;;4980515;28;20463;-86
2021/07/14 01:47:57;;;;;;;11.33;3.60;;;20.20;51.80;;;;;;4987339;28;20436;-87
2021/07/14 01:50:24;;;;;;;13.53;4.10;;;20.30;51.60;;;;;;4992178;28;20451;-87
2021/07/14 01:52:52;;;;;;;9.90;4.13;;;20.40;52.00;;;;;;4980584;28;20467;-86
2021/07/14 01:55:20;;;;;;;19.97;7.90;;;20.50;51.40;;;;;;4978036;28;20982;-87
2021/07/14 01:57:48;;;;;;;10.73;4.57;;;20.60;51.00;;;;;;4977500;28;20714;-86
2021/07/14 02:00:17;;;;;;;8.50;3.30;;;20.60;51.30;;;;;;4977487;28;21009;-86
2021/07/14 02:02:53;;;;;;;9.13;3.00;;;20.60;51.20;;;;;;4977871;28;20450;-86
2021/07/14 02:05:21;;;;;;;4.77;3.40;;;20.70;51.50;;;;;;4978475;28;20792;-87
2021/07/14 02:07:48;;;;;;;9.87;4.83;;;20.90;50.70;;;;;;4978633;28;20447;-86
2021/07/14 02:10:15;;;;;;;5.90;3.10;;;20.90;50.20;;;;;;4978854;28;20520;-86
2021/07/14 02:12:46;;;;;;;6.00;2.73;;;20.90;51.20;;;;;;4978635;28;20448;-86
2021/07/14 02:15:13;;;;;;;5.20;4.07;;;21.00;50.10;;;;;;4978972;28;20467;-86
2021/07/14 02:17:49;;;;;;;12.57;4.10;;;21.10;50.10;;;;;;4979842;28;20436;-87
2021/07/14 02:20:17;;;;;;;5.63;3.30;;;21.00;50.40;;;;;;4978870;28;20983;-87
2021/07/14 02:22:44;;;;;;;8.37;4.07;;;21.00;50.00;;;;;;4975790;28;20946;-87
2021/07/14 02:25:12;;;;;;;5.10;3.13;;;20.90;49.20;;;;;;4976723;28;20981;-86
2021/07/14 02:27:40;;;;;;;8.97;3.50;;;20.30;49.90;;;;;;4976851;28;20444;-87
2021/07/14 02:30:15;;;;;;;13.50;3.50;;;20.20;48.80;;;;;;4976814;28;20492;-87
2021/07/14 02:32:43;;;;;;;8.53;2.80;;;20.00;49.30;;;;;;4977363;28;20464;-87
2021/07/14 02:35:13;;;;;;;7.13;3.43;;;20.30;50.60;;;;;;4976404;28;20516;-87
2021/07/14 02:37:46;;;;;;;7.50;3.87;;;20.30;51.20;;;;;;4976608;28;20459;-87
2021/07/14 02:40:17;;;;;;;4.17;3.20;;;20.40;51.40;;;;;;4976792;28;20440;-87
2021/07/14 02:42:46;;;;;;;10.00;3.80;;;20.40;52.00;;;;;;4976566;28;20934;-87
2021/07/14 02:45:13;;;;;;;7.63;3.10;;;20.40;51.70;;;;;;4976690;28;20972;-87
2021/07/14 02:47:42;;;;;;;3.80;2.80;;;20.60;51.50;;;;;;4976649;28;20499;-87
2021/07/14 02:50:16;;;;;;;7.13;3.80;;;20.80;51.40;;;;;;4976194;28;20568;-87
2021/07/14 02:52:48;;;;;;;8.83;3.70;;;20.80;48.00;;;;;;4976467;28;20866;-87
2021/07/14 02:55:19;;;;;;;6.07;3.07;;;20.80;48.40;;;;;;4976909;28;20455;-86
2021/07/14 02:57:48;;;;;;;12.77;3.10;;;20.90;49.70;;;;;;4976912;28;20945;-86
2021/07/14 03:00:15;;;;;;;3.23;2.90;;;20.60;48.70;;;;;;4979097;28;20452;-87
2021/07/14 03:02:43;;;;;;;7.73;3.10;;;20.40;50.30;;;;;;4980270;28;20460;-87
2021/07/14 03:05:13;;;;;;;15.90;4.40;;;20.30;50.20;;;;;;4978655;28;20510;-87
2021/07/14 03:07:42;;;;;;;17.53;7.73;;;20.40;49.30;;;;;;4976482;28;20563;-87
2021/07/14 03:10:10;;;;;;;16.03;4.07;;;20.10;49.80;;;;;;4975536;28;20476;-87
2021/07/14 03:12:37;;;;;;;15.07;3.20;;;19.90;50.40;;;;;;4975743;28;20933;-87
2021/07/14 03:15:08;;;;;;;16.97;3.70;;;19.90;50.60;;;;;;4975710;28;20526;-87
2021/07/14 03:17:37;;;;;;;5.70;2.90;;;19.70;50.00;;;;;;4975747;28;20542;-87
2021/07/14 03:20:07;;;;;;;16.53;3.70;;;19.20;51.00;;;;;;4975896;28;20862;-87
2021/07/14 03:22:37;;;;;;;11.43;4.07;;;19.30;50.80;;;;;;4976046;28;20807;-87
2021/07/14 03:25:06;;;;;;;6.47;3.03;;;19.50;51.20;;;;;;4976196;28;20439;-87
2021/07/14 03:27:33;;;;;;;7.70;3.27;;;19.80;50.90;;;;;;4976080;28;20486;-87
2021/07/14 03:30:01;;;;;;;6.37;3.43;;;19.90;49.20;;;;;;4975689;28;20475;-87
2021/07/14 03:32:28;;;;;;;7.87;3.53;;;19.70;49.60;;;;;;4975393;28;20548;-87
2021/07/14 03:34:55;;;;;;;12.63;3.77;;;19.40;50.00;;;;;;4973889;28;20562;-86
2021/07/14 03:37:24;;;;;;;7.60;3.53;;;19.10;51.20;;;;;;4975630;28;20531;-86
2021/07/14 03:39:53;;;;;;;19.67;4.07;;;19.00;52.20;;;;;;4975728;28;20531;-86
2021/07/14 03:42:22;;;;;;;17.03;3.97;;;18.80;52.50;;;;;;4975812;28;20551;-86
2021/07/14 03:44:50;;;;;;;13.63;3.30;;;18.70;52.80;;;;;;4975607;28;20468;-86
2021/07/14 03:47:19;;;;;;;11.23;3.60;;;18.90;52.10;;;;;;4975260;28;20455;-86
2021/07/14 03:49:47;;;;;;;6.37;3.30;;;19.20;51.00;;;;;;4975564;28;20574;-86
2021/07/14 03:52:16;;;;;;;4.40;3.40;;;19.40;52.00;;;;;;4975763;28;20607;-86
2021/07/14 03:54:43;;;;;;;12.43;3.30;;;20.00;51.70;;;;;;4975752;28;20966;-87
2021/07/14 03:57:12;;;;;;;7.10;3.47;;;20.10;49.90;;;;;;4975349;28;20522;-87
2021/07/14 03:59:39;;;;;;;6.50;3.30;;;20.30;51.90;;;;;;4975145;28;20539;-87
2021/07/14 04:02:08;;;;;;;3.43;2.73;;;20.50;51.90;;;;;;4975149;28;20490;-87
2021/07/14 04:04:36;;;;;;;7.20;3.30;;;20.70;51.10;;;;;;4975350;28;20547;-87
2021/07/14 04:07:09;;;;;;;9.87;3.23;;;21.00;50.60;;;;;;4975488;28;20459;-87
2021/07/14 04:09:36;;;;;;;16.37;4.40;;;21.00;48.90;;;;;;4975609;28;20488;-87
2021/07/14 04:12:04;;;;;;;9.90;3.07;;;20.90;48.60;;;;;;4975644;28;20483;-86
2021/07/14 04:14:32;;;;;;;12.60;3.77;;;20.70;49.20;;;;;;4980125;28;20508;-86
2021/07/14 04:16:59;;;;;;;11.50;2.90;;;20.70;49.10;;;;;;4980034;28;20460;-87
2021/07/14 04:19:27;;;;;;;4.43;2.77;;;20.80;49.40;;;;;;4979798;28;20452;-87
2021/07/14 04:21:54;;;;;;;12.53;2.90;;;20.80;50.50;;;;;;4979371;28;20906;-87
2021/07/14 04:24:21;;;;;;;4.80;2.60;;;20.90;50.60;;;;;;4976574;28;20547;-87
2021/07/14 04:26:48;;;;;;;8.20;2.93;;;20.90;49.80;;;;;;4977990;28;20961;-87
2021/07/14 04:29:16;;;;;;;14.60;3.13;;;21.10;49.40;;;;;;4978129;28;20484;-87
2021/07/14 04:31:44;;;;;;;4.63;3.10;;;21.10;49.50;;;;;;4977933;28;20439;-87
2021/07/14 04:34:12;;;;;;;3.80;2.80;;;21.10;50.10;;;;;;4976686;28;20500;-87
2021/07/14 04:36:41;;;;;;;5.10;2.73;;;21.10;49.30;;;;;;4982605;28;20514;-88
2021/07/14 04:39:08;;;;;;;19.17;3.30;;;21.30;49.70;;;;;;4978284;28;20451;-87
2021/07/14 04:41:36;;;;;;;5.10;2.80;;;21.40;49.10;;;;;;4976108;28;20947;-87
2021/07/14 04:44:04;;;;;;;13.87;2.90;;;21.30;48.20;;;;;;4976306;28;20491;-87
2021/07/14 04:46:32;;;;;;;3.60;2.70;;;21.20;47.30;;;;;;4978395;28;20498;-86
2021/07/14 04:49:00;;;;;;;5.07;3.00;;;20.70;47.60;;;;;;4982056;28;20452;-86
2021/07/14 04:51:28;;;;;;;3.83;2.67;;;20.60;48.40;;;;;;4981363;28;20499;-86
2021/07/14 04:53:55;;;;;;;8.37;3.27;;;20.60;49.20;;;;;;4983700;28;20502;-86
2021/07/14 04:56:23;;;;;;;6.80;2.73;;;20.60;49.70;;;;;;4982543;28;20479;-86
2021/07/14 04:58:50;;;;;;;6.33;2.70;;;20.80;48.90;;;;;;4982301;28;20882;-86
2021/07/14 05:01:18;;;;;;;3.97;3.30;;;21.10;49.10;;;;;;4980201;28;20526;-86
2021/07/14 05:03:47;;;;;;;4.57;2.73;;;21.20;49.60;;;;;;4978999;28;20758;-87
2021/07/14 05:06:17;;;;;;;4.83;2.73;;;21.40;49.20;;;;;;4977793;28;20466;-86
2021/07/14 05:08:44;;;;;;;8.30;2.63;;;21.40;48.50;;;;;;4979028;28;20455;-86
2021/07/14 05:11:11;;;;;;;7.43;2.97;;;21.20;47.40;;;;;;4978626;28;20480;-86
2021/07/14 05:13:38;;;;;;;4.80;2.90;;;21.30;47.40;;;;;;4978721;28;20849;-86
2021/07/14 05:16:08;;;;;;;3.67;2.60;;;21.40;47.00;;;;;;4986239;28;20424;-86
2021/07/14 05:18:34;;;;;;;4.00;2.83;;;21.30;47.80;;;;;;4989801;28;20440;-86
2021/07/14 05:21:02;;;;;;;7.80;2.60;;;21.20;46.10;;;;;;4979315;28;20555;-86
2021/07/14 05:23:30;;;;;;;8.20;2.60;;;21.20;48.00;;;;;;4978532;28;20545;-86
2021/07/14 05:25:57;;;;;;;8.70;2.80;;;21.30;48.40;;;;;;4979107;28;20478;-86
2021/07/14 05:28:24;;;;;;;6.43;2.60;;;21.30;46.50;;;;;;4979419;28;20522;-86
2021/07/14 05:30:51;;;;;;;9.60;2.77;;;20.50;47.50;;;;;;4979323;28;20530;-86
2021/07/14 05:33:18;;;;;;;4.63;2.90;;;20.20;49.00;;;;;;4979330;28;20463;-86
2021/07/14 05:35:45;;;;;;;9.70;4.07;;;20.30;48.60;;;;;;4979111;28;20514;-86
2021/07/14 05:38:18;;;;;;;7.60;3.40;;;20.60;48.20;;;;;;4978693;28;20471;-86
2021/07/14 05:40:47;;;;;;;4.13;2.80;;;20.60;49.20;;;;;;4978717;28;20464;-86
2021/07/14 05:43:14;;;;;;;4.83;2.37;;;20.40;47.80;;;;;;4977593;28;20534;-87
2021/07/14 05:45:41;;;;;;;8.67;2.67;;;20.30;49.60;;;;;;4979312;28;20539;-87
2021/07/14 05:48:08;;;;;;;12.20;3.67;;;20.40;48.10;;;;;;4978349;28;20490;-86
2021/07/14 05:50:35;;;;;;;4.30;3.00;;;20.60;47.60;;;;;;4978976;28;20932;-86
2021/07/14 05:53:02;;;;;;;8.30;3.00;;;20.30;50.10;;;;;;4978732;28;20475;-86
2021/07/14 05:55:29;;;;;;;6.23;2.67;;;20.10;49.60;;;;;;4979495;28;20965;-86
2021/07/14 05:57:57;;;;;;;6.07;3.43;;;19.90;48.90;;;;;;4981299;28;20957;-87
2021/07/14 06:00:26;;;;;;;21.53;3.70;;;19.20;50.10;;;;;;4993747;28;20459;-86
2021/07/14 06:02:53;;;;;;;14.73;3.60;;;19.10;50.80;;;;;;5084809;23;20496;-87
2021/07/14 06:05:19;;;;;;;7.07;3.20;;;19.40;50.30;;;;;;5060042;28;20483;-87
2021/07/14 06:07:47;;;;;;;14.50;3.43;;;19.80;50.50;;;;;;5060563;28;20430;-92
2021/07/14 06:10:14;;;;;;;5.90;3.60;;;20.30;48.60;;;;;;5060604;28;20485;-90
2021/07/14 06:12:41;;;;;;;16.93;3.20;;;20.20;48.50;;;;;;5060579;28;20480;-95
2021/07/14 06:15:10;;;;;;;13.17;3.17;;;20.20;48.70;;;;;;5060619;28;20434;-94
2021/07/14 06:17:37;;;;;;;5.63;3.30;;;20.30;48.10;;;;;;5060505;28;20464;-93
2021/07/14 06:20:06;;;;;;;8.60;3.37;;;20.30;48.90;;;;;;5060582;28;20436;-89
2021/07/14 06:22:33;;;;;;;9.23;2.70;;;20.70;48.40;;;;;;5060525;28;20460;-95
2021/07/14 06:25:00;;;;;;;4.00;2.73;;;21.10;48.00;;;;;;5060599;28;20433;-95
2021/07/14 06:27:27;;;;;;;4.97;2.80;;;21.20;47.80;;;;;;5060493;28;20425;-89
2021/07/14 06:29:54;;;;;;;11.20;3.40;;;21.40;46.00;;;;;;5060140;28;20471;-89
2021/07/14 06:32:23;;;;;;;3.90;3.30;;;21.20;45.60;;;;;;5059289;28;20450;-90
2021/07/14 06:34:50;;;;;;;5.53;3.40;;;20.60;47.00;;;;;;5059105;28;20433;-91
2021/07/14 06:37:16;;;;;;;8.30;2.90;;;20.20;48.50;;;;;;5059782;28;20428;-90
2021/07/14 06:39:43;;;;;;;10.03;2.70;;;20.50;49.50;;;;;;5060260;28;20424;-91
2021/07/14 06:42:10;;;;;;;10.07;3.70;;;20.90;48.50;;;;;;5059866;28;20479;-91
2021/07/14 06:44:37;;;;;;;7.30;3.30;;;21.10;47.30;;;;;;5060051;28;20421;-90
2021/07/14 06:47:05;;;;;;;7.17;2.60;;;21.50;47.30;;;;;;5059981;28;20482;-90
2021/07/14 06:49:33;;;;;;;7.03;2.97;;;21.80;47.70;;;;;;5059938;28;20424;-90
2021/07/14 06:52:01;;;;;;;5.00;3.03;;;22.10;46.00;;;;;;5059827;28;20450;-89
2021/07/14 06:54:28;;;;;;;12.63;3.10;;;22.10;46.40;;;;;;5059949;28;20417;-90
2021/07/14 06:56:56;;;;;;;4.77;3.30;;;22.30;45.90;;;;;;5059866;28;20433;-91
2021/07/14 06:59:23;;;;;;;11.17;3.87;;;22.40;44.80;;;;;;5059802;28;20409;-90
2021/07/14 07:01:50;;;;;;;7.20;3.20;;;22.30;44.90;;;;;;5059438;28;20476;-91
2021/07/14 07:04:17;;;;;;;9.13;3.03;;;22.30;45.70;;;;;;5059650;28;20438;-90
2021/07/14 07:06:45;;;;;;;14.50;3.20;;;22.40;45.30;;;;;;5059751;28;20430;-91
2021/07/14 07:09:12;;;;;;;12.03;3.60;;;22.50;44.90;;;;;;5059081;28;20429;-90
2021/07/14 07:11:39;;;;;;;4.60;2.97;;;22.30;46.40;;;;;;5059495;28;20465;-91
2021/07/14 07:14:06;;;;;;;12.90;3.60;;;22.50;46.10;;;;;;5059555;28;20516;-90
2021/07/14 07:16:33;;;;;;;13.60;2.90;;;22.50;44.20;;;;;;5059363;28;20452;-91
2021/07/14 07:19:00;;;;;;;5.00;2.73;;;22.50;45.30;;;;;;5059230;28;20457;-91
2021/07/14 07:21:27;;;;;;;6.30;3.10;;;22.70;45.60;;;;;;5059233;28;20417;-91
2021/07/14 07:23:55;;;;;;;5.83;3.03;;;22.80;45.40;;;;;;5059312;28;20444;-91
2021/07/14 07:26:22;;;;;;;6.33;3.10;;;22.60;44.50;;;;;;5059176;28;20425;-91
2021/07/14 07:28:57;;;;;;;8.90;3.27;;;22.60;44.80;;;;;;5059210;28;20440;-92
2021/07/14 07:31:24;;;;;;;6.60;2.93;;;22.20;45.10;;;;;;5058876;28;20476;-90
2021/07/14 07:33:51;;;;;;;6.17;3.23;;;21.70;46.10;;;;;;5059010;28;20432;-91
2021/07/14 07:36:18;;;;;;;6.90;3.53;;;22.10;46.40;;;;;;5058713;28;20457;-91
2021/07/14 07:38:45;;;;;;;13.23;3.30;;;22.30;46.30;;;;;;5058645;28;20460;-90
2021/07/14 07:41:14;;;;;;;16.37;4.57;;;22.60;45.60;;;;;;5058548;28;20433;-89
2021/07/14 07:43:41;;;;;;;5.10;2.90;;;22.70;45.60;;;;;;5058786;28;20490;-91
2021/07/14 07:46:09;;;;;;;8.87;3.67;;;23.10;44.80;;;;;;5058776;28;20421;-91
2021/07/14 07:48:36;;;;;;;4.40;3.00;;;23.40;44.10;;;;;;5058638;28;20488;-92
2021/07/14 07:51:03;;;;;;;10.73;3.60;;;23.50;44.70;;;;;;5058595;28;20469;-91
2021/07/14 07:53:30;;;;;;;9.33;3.30;;;23.40;43.00;;;;;;5058491;28;20445;-90
2021/07/14 07:55:57;;;;;;;6.17;2.80;;;23.30;44.20;;;;;;5056738;28;20460;-89
2021/07/14 07:58:26;;;;;;;5.13;3.40;;;23.20;43.80;;;;;;5039910;28;20449;-89
2021/07/14 08:00:54;;;;;;;5.63;3.00;;;23.10;44.00;;;;;;5036078;28;20437;-89
2021/07/14 08:03:21;;;;;;;4.50;3.40;;;23.20;42.80;;;;;;5036909;28;20591;-89
2021/07/14 08:05:48;;;;;;;8.30;3.10;;;23.20;43.70;;;;;;5036246;28;20449;-89
2021/07/14 08:08:16;;;;;;;8.17;3.20;;;23.40;43.30;;;;;;5035758;28;20488;-89
2021/07/14 08:10:44;;;;;;;15.63;6.27;;;23.20;43.10;;;;;;5034993;28;20822;-89
2021/07/14 08:13:11;;;;;;;4.83;2.90;;;23.00;42.90;;;;;;5035448;28;20457;-89
2021/07/14 08:15:40;;;;;;;6.37;3.30;;;22.80;44.00;;;;;;5035703;28;20488;-89
2021/07/14 08:18:07;;;;;;;11.67;3.50;;;22.40;43.70;;;;;;5036925;28;20437;-89
2021/07/14 08:20:34;;;;;;;4.10;3.00;;;22.50;44.40;;;;;;5035751;28;20973;-88
2021/07/14 08:23:01;;;;;;;7.90;2.63;;;22.80;43.70;;;;;;5035985;28;20473;-89
2021/07/14 08:25:28;;;;;;;6.67;3.20;;;22.40;43.90;;;;;;5035270;28;20453;-90
2021/07/14 08:27:55;;;;;;;7.73;3.10;;;22.50;43.90;;;;;;5037027;28;20540;-89
2021/07/14 08:30:22;;;;;;;5.03;2.70;;;22.60;44.00;;;;;;5036668;28;20499;-89
2021/07/14 08:32:51;;;;;;;4.23;2.90;;;22.70;44.50;;;;;;5035603;28;21009;-89
2021/07/14 08:35:18;;;;;;;10.70;3.37;;;22.80;43.40;;;;;;5038993;28;20433;-89
2021/07/14 08:37:46;;;;;;;6.23;3.07;;;22.90;43.40;;;;;;5036261;28;20850;-89
2021/07/14 08:40:14;;;;;;;4.90;3.43;;;23.10;44.10;;;;;;5036777;28;20930;-89
2021/07/14 08:42:42;;;;;;;6.00;3.20;;;23.30;43.30;;;;;;5037933;28;20507;-88
2021/07/14 08:45:12;;;;;;;5.97;3.00;;;23.10;43.10;;;;;;5035825;28;20444;-89
2021/07/14 08:47:39;;;;;;;3.90;2.80;;;23.20;43.50;;;;;;5036152;28;20481;-89
2021/07/14 08:50:10;;;;;;;12.83;3.20;;;23.20;43.70;;;;;;5034049;28;20520;-89
2021/07/14 08:52:42;;;;;;;9.00;2.80;;;23.30;42.60;;;;;;5035289;28;20479;-88
2021/07/14 08:55:11;;;;;;;12.07;3.60;;;23.10;44.00;;;;;;5034525;28;20440;-89
2021/07/14 08:57:38;;;;;;;6.77;3.23;;;23.10;42.60;;;;;;5034931;28;20449;-89
2021/07/14 09:00:08;;;;;;;7.30;3.60;;;22.80;43.80;;;;;;5038092;28;20524;-89
2021/07/14 09:02:38;;;;;;;11.03;5.00;;;22.70;43.90;;;;;;5035114;28;20501;-89
2021/07/14 09:05:08;;;;;;;9.57;4.67;;;23.00;43.60;;;;;;5036396;28;20797;-89
2021/07/14 09:07:35;;;;;;;3.80;2.60;;;22.90;43.80;;;;;;5037328;28;20524;-89
2021/07/14 09:10:03;;;;;;;7.10;3.17;;;23.10;44.80;;;;;;5035620;28;20885;-89
2021/07/14 09:12:36;;;;;;;5.80;3.00;;;23.10;43.40;;;;;;5034980;28;20449;-89
2021/07/14 09:15:06;;;;;;;6.83;3.07;;;23.10;43.40;;;;;;5036138;28;20417;-88
2021/07/14 09:17:33;;;;;;;4.47;3.20;;;22.90;44.30;;;;;;5036931;28;20410;-89
2021/07/14 09:20:12;;;;;;;3.43;2.90;;;23.30;43.50;;;;;;5037847;28;20480;-89
2021/07/14 09:22:39;;;;;;;8.80;4.60;;;23.50;43.70;;;;;;5042408;28;20452;-89
2021/07/14 09:25:12;;;;;;;16.90;6.90;;;23.20;43.70;;;;;;5041869;28;20663;-88
2021/07/14 09:27:52;;;;;;;11.50;6.70;;;22.60;43.90;;;;;;5041213;28;20513;-89
2021/07/14 09:30:21;;;;;;;7.80;3.90;;;22.30;45.00;;;;;;5039208;28;20501;-89
2021/07/14 09:32:50;;;;;;;5.83;3.63;;;22.60;45.00;;;;;;5041337;28;20499;-89
2021/07/14 09:35:37;;;;;;;30.10;4.20;;;22.90;44.00;;;;;;5043472;28;20449;-88
2021/07/14 09:38:07;;;;;;;7.63;3.30;;;23.30;44.30;;;;;;5043671;28;20488;-89
2021/07/14 09:40:40;;;;;;;6.20;3.10;;;22.90;43.70;;;;;;5048306;28;20417;-90
2021/07/14 09:43:11;;;;;;;4.73;3.10;;;22.60;44.30;;;;;;5059415;28;20493;-89
2021/07/14 09:45:47;;;;;;;4.60;3.23;;;22.80;43.50;;;;;;5060726;28;20473;-90
2021/07/14 09:48:17;;;;;;;3.80;3.03;;;22.90;43.50;;;;;;5060912;28;20417;-90
2021/07/14 09:50:48;;;;;;;4.00;2.87;;;22.90;43.80;;;;;;5059029;28;20500;-89
2021/07/14 09:53:19;;;;;;;12.40;3.33;;;22.50;44.30;;;;;;5053874;28;20468;-89
2021/07/14 09:55:47;;;;;;;15.30;3.20;;;22.60;46.10;;;;;;5050533;28;20413;-89
2021/07/14 09:58:18;;;;;;;6.00;3.73;;;22.20;46.30;;;;;;5053699;28;20447;-89
2021/07/14 10:00:48;;;;;;;9.30;3.17;;;22.60;45.70;;;;;;5053127;28;20449;-88
2021/07/14 10:03:24;;;;;;;7.70;3.57;;;22.60;45.00;;;;;;5052444;28;20495;-89
2021/07/14 10:06:04;;;;;;;29.50;4.20;;;22.80;44.80;;;;;;5042142;28;20429;-89
2021/07/14 10:08:32;;;;;;;6.60;3.20;;;23.00;43.90;;;;;;5039308;28;20464;-89
2021/07/14 10:11:16;;;;;;;4.03;3.00;;;22.90;43.90;;;;;;5039019;28;20476;-89
2021/07/14 10:13:55;;;;;;;7.80;3.13;;;22.50;44.70;;;;;;5039389;28;20435;-89
2021/07/14 10:16:23;;;;;;;4.93;3.40;;;22.20;46.50;;;;;;5046239;28;20448;-89
2021/07/14 10:19:01;;;;;;;6.67;4.03;;;22.40;46.10;;;;;;5058756;28;20441;-88
2021/07/14 10:21:30;;;;;;;5.77;3.30;;;22.50;46.10;;;;;;5043869;28;20461;-88
2021/07/14 10:23:57;;;;;;;5.93;3.00;;;23.00;44.90;;;;;;5039267;28;20457;-88
2021/07/14 10:26:26;;;;;;;5.90;3.10;;;23.50;44.00;;;;;;5038627;28;20543;-88
2021/07/14 10:28:56;;;;;;;10.33;2.70;;;23.90;43.30;;;;;;5039573;28;20528;-89
2021/07/14 10:31:24;;;;;;;9.67;2.50;;;23.80;42.60;;;;;;5042496;28;20969;-89
2021/07/14 10:33:53;;;;;;;7.13;3.00;;;23.50;43.50;;;;;;5040799;28;20464;-89
2021/07/14 10:36:23;;;;;;;6.63;4.10;;;23.40;43.60;;;;;;5042771;28;20465;-89
2021/07/14 10:38:55;;;;;;;5.30;2.90;;;23.50;44.00;;;;;;5040275;28;20460;-89
2021/07/14 10:41:23;;;;;;;3.83;2.63;;;23.90;43.50;;;;;;5038002;28;20437;-90
2021/07/14 10:43:51;;;;;;;11.70;2.50;;;24.70;41.50;;;;;;5045119;28;20476;-89
2021/07/14 10:46:20;;;;;;;3.20;2.63;;;25.50;38.90;;;;;;5058437;28;20430;-89
2021/07/14 10:48:47;;;;;;;3.53;2.80;;;25.30;39.40;;;;;;5045900;28;20453;-89
2021/07/14 10:51:14;;;;;;;9.20;2.73;;;25.40;38.80;;;;;;5041771;28;21029;-89
2021/07/14 10:53:42;;;;;;;3.10;2.10;;;25.50;39.20;;;;;;5041931;28;20523;-88
2021/07/14 10:56:13;;;;;;;5.47;2.30;;;25.90;37.50;;;;;;5039210;28;20878;-89
2021/07/14 10:58:42;;;;;;;3.10;2.10;;;26.20;37.60;;;;;;5043031;28;20497;-89
2021/07/14 11:01:09;;;;;;;6.17;3.10;;;26.90;36.70;;;;;;5040137;28;20468;-89
2021/07/14 11:03:46;;;;;;;2.37;2.17;;;26.10;37.80;;;;;;5040079;28;20456;-89
2021/07/14 11:06:15;;;;;;;2.97;2.20;;;25.50;38.10;;;;;;5041059;28;20544;-90
2021/07/14 11:08:44;;;;;;;2.83;2.37;;;25.30;37.60;;;;;;5038760;28;20452;-89
2021/07/14 11:11:14;;;;;;;5.03;2.30;;;24.90;38.80;;;;;;5038429;28;20568;-90
2021/07/14 11:13:42;;;;;;;2.93;2.23;;;25.10;38.60;;;;;;5039645;28;20443;-90
2021/07/14 11:16:26;;;;;;;2.17;2.03;;;25.90;36.80;;;;;;5038472;28;20433;-90
2021/07/14 11:19:02;;;;;;;2.73;1.87;;;26.60;35.40;;;;;;5037225;28;20465;-90
2021/07/14 11:24:56;;;;;;;3.03;2.00;;;26.70;35.20;;;;;;5036527;28;20369;-90
2021/07/14 11:28:01;;;;;;;2.17;1.97;;;27.00;34.60;;;;;;5036950;28;20854;-90
2021/07/14 11:30:36;;;;;;;3.67;2.10;;;27.50;33.30;;;;;;5037921;28;20447;-90
2021/07/14 11:33:04;;;;;;;2.47;2.13;;;26.90;33.90;;;;;;5037180;28;20500;-89
2021/07/14 11:35:40;;;;;;;1.70;1.60;;;27.20;34.80;;;;;;5040014;28;20437;-90
2021/07/14 11:38:16;;;;;;;3.30;2.67;;;27.80;33.80;;;;;;5038844;28;20906;-88
2021/07/14 11:40:45;;;;;;;3.97;2.03;;;27.70;32.80;;;;;;5036413;28;20433;-88
2021/07/14 11:43:24;;;;;;;2.80;2.10;;;27.80;33.40;;;;;;5038001;28;20507;-88
2021/07/14 11:45:53;;;;;;;2.53;1.70;;;27.80;32.50;;;;;;5036085;28;20429;-89
2021/07/14 11:48:32;;;;;;;2.00;1.70;;;28.00;32.60;;;;;;5035737;28;20477;-89
2021/07/14 11:51:00;;;;;;;3.13;1.90;;;27.80;31.60;;;;;;5035279;28;20523;-89
2021/07/14 11:53:46;;;;;;;2.50;1.80;;;27.70;31.50;;;;;;5035422;28;20503;-89
2021/07/14 11:56:19;;;;;;;2.53;1.70;;;27.70;32.50;;;;;;5035878;28;20425;-89
2021/07/14 11:58:53;;;;;;;2.40;1.90;;;27.40;32.40;;;;;;5035767;28;20876;-88
2021/07/14 12:01:58;;;;;;;3.37;1.80;;;27.40;32.60;;;;;;5035841;28;20485;-89
2021/07/14 12:04:27;;;;;;;5.60;2.00;;;27.40;32.40;;;;;;5029830;28;20441;-89
2021/07/14 12:07:01;;;;;;;2.37;1.93;;;27.30;32.80;;;;;;5035613;28;20528;-89
2021/07/14 12:09:30;;;;;;;3.93;2.07;;;27.20;31.60;;;;;;5035702;28;20464;-90
2021/07/14 12:11:59;;;;;;;2.20;2.00;;;27.40;32.90;;;;;;5035846;28;20489;-89
2021/07/14 12:14:29;;;;;;;2.30;1.87;;;26.90;33.20;;;;;;5035125;28;20437;-89
2021/07/14 12:16:57;;;;;;;4.70;2.00;;;26.50;33.20;;;;;;5035625;28;20755;-89
2021/07/14 12:19:26;;;;;;;2.00;1.70;;;26.60;33.50;;;;;;5036175;28;20515;-89
2021/07/14 12:21:54;;;;;;;1.80;1.60;;;26.60;32.00;;;;;;5035756;28;20464;-89
2021/07/14 12:24:31;;;;;;;3.50;1.77;;;26.50;32.40;;;;;;5036484;28;20445;-89
2021/07/14 12:27:03;;;;;;;3.20;1.90;;;25.70;33.30;;;;;;5036336;28;20528;-89
2021/07/14 12:29:31;;;;;;;1.63;1.60;;;25.70;34.70;;;;;;5035500;28;20528;-89
2021/07/14 12:31:59;;;;;;;1.93;1.67;;;26.60;33.10;;;;;;5035195;28;20562;-89
2021/07/14 12:34:27;;;;;;;1.97;1.80;;;26.90;32.10;;;;;;5035205;28;20449;-90
2021/07/14 12:36:55;;;;;;;1.83;1.80;;;26.90;32.60;;;;;;5039243;28;20491;-89
2021/07/14 12:39:24;;;;;;;1.80;1.70;;;26.50;32.30;;;;;;5040309;28;20480;-89
2021/07/14 12:41:53;;;;;;;2.43;1.80;;;26.40;33.30;;;;;;5036605;28;20495;-89
2021/07/14 12:44:20;;;;;;;2.80;1.80;;;26.20;34.50;;;;;;5034755;28;20483;-89
2021/07/14 12:46:49;;;;;;;2.43;2.10;;;26.40;33.80;;;;;;5036088;28;20852;-89
2021/07/14 12:49:17;;;;;;;3.10;2.17;;;26.00;35.00;;;;;;5035093;28;20507;-89
2021/07/14 12:52:03;;;;;;;2.40;2.10;;;26.20;33.80;;;;;;5034425;28;20531;-89
2021/07/14 12:54:30;;;;;;;1.90;1.90;;;26.40;34.10;;;;;;5034296;28;20468;-89
2021/07/14 12:57:05;;;;;;;2.50;2.10;;;26.70;33.80;;;;;;5033746;28;20453;-89
2021/07/14 12:59:32;;;;;;;2.63;2.10;;;26.90;33.40;;;;;;5034857;28;20836;-89
2021/07/14 13:02:01;;;;;;;4.33;2.00;;;26.80;33.80;;;;;;5034242;28;20549;-89
2021/07/14 13:04:28;;;;;;;2.10;1.80;;;26.90;33.20;;;;;;5036067;28;20453;-90